sensor_id;sensor_type;location;lat;lon;timestamp;P1;durP1;ratioP1;P2;durP2;ratioP2
59474;SDS011;45288;51.136;16.928;2022-10-24T00:01:31;13.70;;;8.77;;
59474;SDS011;45288;51.136;16.928;2022-10-24T00:03:56;13.20;;;9.37;;
59474;SDS011;45288;51.136;16.928;2022-10-24T00:06:22;14.63;;;9.68;;
59474;SDS011;45288;51.136;16.928;2022-10-24T00:08:48;13.77;;;9.88;;
59474;SDS011;45288;51.136;16.928;2022-10-24T00:11:18;15.60;;;9.57;;
59474;SDS011;45288;51.136;16.928;2022-10-24T00:13:44;15.37;;;9.80;;
59474;SDS011;45288;51.136;16.928;2022-10-24T00:16:11;14.05;;;9.45;;
59474;SDS011;45288;51.136;16.928;2022-10-24T00:18:37;13.82;;;9.52;;
59474;SDS011;45288;51.136;16.928;2022-10-24T00:21:03;13.23;;;9.52;;
59474;SDS011;45288;51.136;16.928;2022-10-24T00:23:28;13.30;;;9.85;;
59474;SDS011;45288;51.136;16.928;2022-10-24T00:25:54;14.47;;;9.80;;
59474;SDS011;45288;51.136;16.928;2022-10-24T00:28:20;12.63;;;9.55;;
59474;SDS011;45288;51.136;16.928;2022-10-24T00:30:49;13.57;;;9.70;;
59474;SDS011;45288;51.136;16.928;2022-10-24T00:33:14;14.13;;;9.90;;
59474;SDS011;45288;51.136;16.928;2022-10-24T00:35:40;13.82;;;9.73;;
59474;SDS011;45288;51.136;16.928;2022-10-24T00:38:06;13.60;;;9.53;;
59474;SDS011;45288;51.136;16.928;2022-10-24T00:40:32;14.40;;;9.90;;
59474;SDS011;45288;51.136;16.928;2022-10-24T00:42:58;14.90;;;9.97;;
59474;SDS011;45288;51.136;16.928;2022-10-24T00:45:35;14.25;;;10.27;;
59474;SDS011;45288;51.136;16.928;2022-10-24T00:48:01;14.25;;;9.82;;
59474;SDS011;45288;51.136;16.928;2022-10-24T00:50:27;15.73;;;10.10;;
59474;SDS011;45288;51.136;16.928;2022-10-24T00:52:53;14.10;;;9.65;;
59474;SDS011;45288;51.136;16.928;2022-10-24T00:55:19;15.40;;;9.90;;
59474;SDS011;45288;51.136;16.928;2022-10-24T00:57:47;16.75;;;10.60;;
59474;SDS011;45288;51.136;16.928;2022-10-24T01:00:15;16.70;;;10.80;;
59474;SDS011;45288;51.136;16.928;2022-10-24T01:02:42;15.88;;;10.07;;
59474;SDS011;45288;51.136;16.928;2022-10-24T01:05:08;14.17;;;10.30;;
59474;SDS011;45288;51.136;16.928;2022-10-24T01:07:41;13.05;;;9.80;;
59474;SDS011;45288;51.136;16.928;2022-10-24T01:15:13;13.83;;;9.57;;
59474;SDS011;45288;51.136;16.928;2022-10-24T01:17:44;14.07;;;10.02;;
59474;SDS011;45288;51.136;16.928;2022-10-24T01:20:25;13.73;;;9.80;;
59474;SDS011;45288;51.136;16.928;2022-10-24T01:25:32;13.38;;;9.90;;
59474;SDS011;45288;51.136;16.928;2022-10-24T01:28:04;12.90;;;9.60;;
59474;SDS011;45288;51.136;16.928;2022-10-24T01:30:33;13.18;;;10.07;;
59474;SDS011;45288;51.136;16.928;2022-10-24T01:33:03;11.63;;;9.63;;
59474;SDS011;45288;51.136;16.928;2022-10-24T01:38:30;14.20;;;10.40;;
59474;SDS011;45288;51.136;16.928;2022-10-24T01:43:27;13.40;;;10.07;;
59474;SDS011;45288;51.136;16.928;2022-10-24T01:45:55;11.70;;;9.48;;
59474;SDS011;45288;51.136;16.928;2022-10-24T01:48:21;13.85;;;9.95;;
59474;SDS011;45288;51.136;16.928;2022-10-24T01:50:49;13.43;;;9.60;;
59474;SDS011;45288;51.136;16.928;2022-10-24T01:53:16;12.65;;;9.55;;
59474;SDS011;45288;51.136;16.928;2022-10-24T01:55:41;12.97;;;9.43;;
59474;SDS011;45288;51.136;16.928;2022-10-24T01:58:08;13.00;;;9.63;;
59474;SDS011;45288;51.136;16.928;2022-10-24T02:00:34;13.83;;;9.97;;
59474;SDS011;45288;51.136;16.928;2022-10-24T02:03:00;12.88;;;10.43;;
59474;SDS011;45288;51.136;16.928;2022-10-24T02:05:33;14.20;;;10.05;;
59474;SDS011;45288;51.136;16.928;2022-10-24T02:08:04;13.30;;;9.43;;
59474;SDS011;45288;51.136;16.928;2022-10-24T02:10:32;12.88;;;10.30;;
59474;SDS011;45288;51.136;16.928;2022-10-24T02:12:59;12.18;;;9.75;;
59474;SDS011;45288;51.136;16.928;2022-10-24T02:15:27;12.88;;;9.98;;
59474;SDS011;45288;51.136;16.928;2022-10-24T02:17:53;13.73;;;10.23;;
59474;SDS011;45288;51.136;16.928;2022-10-24T02:20:27;13.95;;;10.23;;
59474;SDS011;45288;51.136;16.928;2022-10-24T02:22:58;14.90;;;10.60;;
59474;SDS011;45288;51.136;16.928;2022-10-24T02:25:26;14.82;;;10.82;;
59474;SDS011;45288;51.136;16.928;2022-10-24T02:30:27;14.55;;;10.57;;
59474;SDS011;45288;51.136;16.928;2022-10-24T02:32:54;14.27;;;10.50;;
59474;SDS011;45288;51.136;16.928;2022-10-24T02:35:38;12.68;;;10.02;;
59474;SDS011;45288;51.136;16.928;2022-10-24T02:38:13;15.35;;;10.52;;
59474;SDS011;45288;51.136;16.928;2022-10-24T02:40:40;13.60;;;10.18;;
59474;SDS011;45288;51.136;16.928;2022-10-24T02:43:07;14.88;;;10.38;;
59474;SDS011;45288;51.136;16.928;2022-10-24T02:45:33;12.77;;;10.05;;
59474;SDS011;45288;51.136;16.928;2022-10-24T02:48:01;14.75;;;10.18;;
59474;SDS011;45288;51.136;16.928;2022-10-24T02:50:27;13.93;;;9.55;;
59474;SDS011;45288;51.136;16.928;2022-10-24T02:52:53;13.95;;;9.88;;
59474;SDS011;45288;51.136;16.928;2022-10-24T02:55:20;13.48;;;9.60;;
59474;SDS011;45288;51.136;16.928;2022-10-24T02:57:46;12.40;;;9.43;;
59474;SDS011;45288;51.136;16.928;2022-10-24T03:00:12;11.93;;;9.50;;
59474;SDS011;45288;51.136;16.928;2022-10-24T03:02:37;11.60;;;9.20;;
59474;SDS011;45288;51.136;16.928;2022-10-24T03:05:03;15.17;;;10.03;;
59474;SDS011;45288;51.136;16.928;2022-10-24T03:07:29;12.70;;;9.48;;
59474;SDS011;45288;51.136;16.928;2022-10-24T03:09:54;14.20;;;9.17;;
59474;SDS011;45288;51.136;16.928;2022-10-24T03:12:20;12.90;;;9.18;;
59474;SDS011;45288;51.136;16.928;2022-10-24T03:14:47;13.27;;;8.53;;
59474;SDS011;45288;51.136;16.928;2022-10-24T03:17:12;12.60;;;9.10;;
59474;SDS011;45288;51.136;16.928;2022-10-24T03:19:38;11.37;;;8.43;;
59474;SDS011;45288;51.136;16.928;2022-10-24T03:22:04;11.85;;;8.25;;
59474;SDS011;45288;51.136;16.928;2022-10-24T03:24:30;10.03;;;8.00;;
59474;SDS011;45288;51.136;16.928;2022-10-24T03:26:55;9.52;;;7.50;;
59474;SDS011;45288;51.136;16.928;2022-10-24T03:29:21;9.98;;;8.02;;
59474;SDS011;45288;51.136;16.928;2022-10-24T03:31:47;9.65;;;7.95;;
59474;SDS011;45288;51.136;16.928;2022-10-24T03:34:13;9.63;;;8.03;;
59474;SDS011;45288;51.136;16.928;2022-10-24T03:36:38;9.15;;;8.05;;
59474;SDS011;45288;51.136;16.928;2022-10-24T03:39:04;10.85;;;7.97;;
59474;SDS011;45288;51.136;16.928;2022-10-24T03:41:30;10.20;;;8.00;;
59474;SDS011;45288;51.136;16.928;2022-10-24T03:43:56;8.85;;;7.65;;
59474;SDS011;45288;51.136;16.928;2022-10-24T03:46:21;11.43;;;8.37;;
59474;SDS011;45288;51.136;16.928;2022-10-24T03:48:47;9.98;;;7.82;;
59474;SDS011;45288;51.136;16.928;2022-10-24T03:51:13;9.80;;;7.70;;
59474;SDS011;45288;51.136;16.928;2022-10-24T03:53:39;9.48;;;7.63;;
59474;SDS011;45288;51.136;16.928;2022-10-24T03:56:05;8.10;;;7.10;;
59474;SDS011;45288;51.136;16.928;2022-10-24T03:58:31;8.55;;;7.15;;
59474;SDS011;45288;51.136;16.928;2022-10-24T04:00:57;10.47;;;7.63;;
59474;SDS011;45288;51.136;16.928;2022-10-24T04:03:24;9.63;;;7.80;;
59474;SDS011;45288;51.136;16.928;2022-10-24T04:05:50;10.68;;;7.68;;
59474;SDS011;45288;51.136;16.928;2022-10-24T04:08:16;9.15;;;7.28;;
59474;SDS011;45288;51.136;16.928;2022-10-24T04:10:41;10.50;;;7.23;;
59474;SDS011;45288;51.136;16.928;2022-10-24T04:13:07;9.15;;;7.38;;
59474;SDS011;45288;51.136;16.928;2022-10-24T04:15:32;9.33;;;7.07;;
59474;SDS011;45288;51.136;16.928;2022-10-24T04:17:58;8.30;;;7.00;;
59474;SDS011;45288;51.136;16.928;2022-10-24T04:20:24;8.95;;;6.97;;
59474;SDS011;45288;51.136;16.928;2022-10-24T04:22:49;9.40;;;6.80;;
59474;SDS011;45288;51.136;16.928;2022-10-24T04:25:16;9.52;;;6.78;;
59474;SDS011;45288;51.136;16.928;2022-10-24T04:27:41;9.05;;;6.80;;
59474;SDS011;45288;51.136;16.928;2022-10-24T04:30:08;9.00;;;6.83;;
59474;SDS011;45288;51.136;16.928;2022-10-24T04:32:33;7.57;;;6.78;;
59474;SDS011;45288;51.136;16.928;2022-10-24T04:35:00;8.25;;;6.43;;
59474;SDS011;45288;51.136;16.928;2022-10-24T04:37:25;8.27;;;6.82;;
59474;SDS011;45288;51.136;16.928;2022-10-24T04:39:51;7.60;;;6.80;;
59474;SDS011;45288;51.136;16.928;2022-10-24T04:42:19;8.07;;;6.60;;
59474;SDS011;45288;51.136;16.928;2022-10-24T04:44:44;11.80;;;7.20;;
59474;SDS011;45288;51.136;16.928;2022-10-24T04:47:10;8.17;;;6.93;;
59474;SDS011;45288;51.136;16.928;2022-10-24T04:49:37;9.75;;;6.93;;
59474;SDS011;45288;51.136;16.928;2022-10-24T04:52:02;15.45;;;13.88;;
59474;SDS011;45288;51.136;16.928;2022-10-24T04:54:28;17.47;;;15.33;;
59474;SDS011;45288;51.136;16.928;2022-10-24T04:56:53;19.02;;;14.88;;
59474;SDS011;45288;51.136;16.928;2022-10-24T04:59:19;16.47;;;14.40;;
59474;SDS011;45288;51.136;16.928;2022-10-24T05:01:45;20.57;;;18.47;;
59474;SDS011;45288;51.136;16.928;2022-10-24T05:04:10;32.85;;;29.50;;
59474;SDS011;45288;51.136;16.928;2022-10-24T05:06:37;41.75;;;37.45;;
59474;SDS011;45288;51.136;16.928;2022-10-24T05:09:02;40.00;;;35.83;;
59474;SDS011;45288;51.136;16.928;2022-10-24T05:11:28;33.88;;;30.38;;
59474;SDS011;45288;51.136;16.928;2022-10-24T05:13:54;26.95;;;24.05;;
59474;SDS011;45288;51.136;16.928;2022-10-24T05:16:19;15.60;;;13.33;;
59474;SDS011;45288;51.136;16.928;2022-10-24T05:18:45;15.73;;;12.50;;
59474;SDS011;45288;51.136;16.928;2022-10-24T05:21:11;13.80;;;11.82;;
59474;SDS011;45288;51.136;16.928;2022-10-24T05:23:36;14.93;;;12.17;;
59474;SDS011;45288;51.136;16.928;2022-10-24T05:26:02;11.93;;;10.10;;
59474;SDS011;45288;51.136;16.928;2022-10-24T05:28:28;12.13;;;8.90;;
59474;SDS011;45288;51.136;16.928;2022-10-24T05:30:53;11.27;;;8.65;;
59474;SDS011;45288;51.136;16.928;2022-10-24T05:33:19;12.63;;;8.70;;
59474;SDS011;45288;51.136;16.928;2022-10-24T05:35:45;12.15;;;9.38;;
59474;SDS011;45288;51.136;16.928;2022-10-24T05:38:11;10.80;;;9.60;;
59474;SDS011;45288;51.136;16.928;2022-10-24T05:40:36;10.70;;;8.63;;
59474;SDS011;45288;51.136;16.928;2022-10-24T05:43:02;13.27;;;8.63;;
59474;SDS011;45288;51.136;16.928;2022-10-24T05:45:27;11.30;;;9.00;;
59474;SDS011;45288;51.136;16.928;2022-10-24T05:47:53;9.27;;;7.97;;
59474;SDS011;45288;51.136;16.928;2022-10-24T05:50:19;10.68;;;7.93;;
59474;SDS011;45288;51.136;16.928;2022-10-24T05:52:45;9.90;;;7.40;;
59474;SDS011;45288;51.136;16.928;2022-10-24T05:55:10;9.82;;;7.47;;
59474;SDS011;45288;51.136;16.928;2022-10-24T05:57:36;10.87;;;7.37;;
59474;SDS011;45288;51.136;16.928;2022-10-24T06:00:05;7.72;;;6.50;;
59474;SDS011;45288;51.136;16.928;2022-10-24T06:02:37;10.57;;;6.50;;
59474;SDS011;45288;51.136;16.928;2022-10-24T06:05:03;7.72;;;5.82;;
59474;SDS011;45288;51.136;16.928;2022-10-24T06:07:30;8.50;;;6.10;;
59474;SDS011;45288;51.136;16.928;2022-10-24T06:09:56;9.13;;;6.70;;
59474;SDS011;45288;51.136;16.928;2022-10-24T06:12:22;8.05;;;6.35;;
59474;SDS011;45288;51.136;16.928;2022-10-24T06:14:48;7.90;;;6.20;;
59474;SDS011;45288;51.136;16.928;2022-10-24T06:17:13;9.00;;;6.53;;
59474;SDS011;45288;51.136;16.928;2022-10-24T06:19:39;8.50;;;6.23;;
59474;SDS011;45288;51.136;16.928;2022-10-24T06:22:07;9.50;;;5.95;;
59474;SDS011;45288;51.136;16.928;2022-10-24T06:24:33;8.60;;;5.90;;
59474;SDS011;45288;51.136;16.928;2022-10-24T06:27:01;7.73;;;6.23;;
59474;SDS011;45288;51.136;16.928;2022-10-24T06:29:26;8.05;;;6.00;;
59474;SDS011;45288;51.136;16.928;2022-10-24T06:31:52;9.07;;;6.07;;
59474;SDS011;45288;51.136;16.928;2022-10-24T06:34:18;8.60;;;6.10;;
59474;SDS011;45288;51.136;16.928;2022-10-24T06:36:43;9.50;;;5.87;;
59474;SDS011;45288;51.136;16.928;2022-10-24T06:39:09;7.22;;;6.07;;
59474;SDS011;45288;51.136;16.928;2022-10-24T06:41:36;8.57;;;5.67;;
59474;SDS011;45288;51.136;16.928;2022-10-24T06:44:02;7.57;;;5.85;;
59474;SDS011;45288;51.136;16.928;2022-10-24T06:46:27;7.70;;;5.87;;
59474;SDS011;45288;51.136;16.928;2022-10-24T06:48:53;7.63;;;6.07;;
59474;SDS011;45288;51.136;16.928;2022-10-24T06:51:20;12.45;;;5.75;;
59474;SDS011;45288;51.136;16.928;2022-10-24T06:53:45;8.43;;;6.15;;
59474;SDS011;45288;51.136;16.928;2022-10-24T06:56:11;6.60;;;5.73;;
59474;SDS011;45288;51.136;16.928;2022-10-24T06:58:38;9.63;;;5.63;;
59474;SDS011;45288;51.136;16.928;2022-10-24T07:01:08;7.45;;;5.43;;
59474;SDS011;45288;51.136;16.928;2022-10-24T07:03:33;8.90;;;6.03;;
59474;SDS011;45288;51.136;16.928;2022-10-24T07:06:04;9.23;;;6.35;;
59474;SDS011;45288;51.136;16.928;2022-10-24T07:08:29;8.82;;;5.68;;
59474;SDS011;45288;51.136;16.928;2022-10-24T07:10:55;7.78;;;5.85;;
59474;SDS011;45288;51.136;16.928;2022-10-24T07:13:21;9.43;;;5.83;;
59474;SDS011;45288;51.136;16.928;2022-10-24T07:15:46;8.85;;;5.40;;
59474;SDS011;45288;51.136;16.928;2022-10-24T07:18:12;9.73;;;5.77;;
59474;SDS011;45288;51.136;16.928;2022-10-24T07:20:38;8.65;;;5.80;;
59474;SDS011;45288;51.136;16.928;2022-10-24T07:23:04;7.17;;;5.70;;
59474;SDS011;45288;51.136;16.928;2022-10-24T07:25:29;8.00;;;6.15;;
59474;SDS011;45288;51.136;16.928;2022-10-24T07:27:55;10.30;;;6.23;;
59474;SDS011;45288;51.136;16.928;2022-10-24T07:30:20;6.53;;;5.40;;
59474;SDS011;45288;51.136;16.928;2022-10-24T07:32:46;8.05;;;5.47;;
59474;SDS011;45288;51.136;16.928;2022-10-24T07:35:13;8.93;;;5.78;;
59474;SDS011;45288;51.136;16.928;2022-10-24T07:37:38;8.30;;;5.40;;
59474;SDS011;45288;51.136;16.928;2022-10-24T07:40:04;7.78;;;5.55;;
59474;SDS011;45288;51.136;16.928;2022-10-24T07:42:30;8.87;;;5.80;;
59474;SDS011;45288;51.136;16.928;2022-10-24T07:44:55;6.45;;;5.70;;
59474;SDS011;45288;51.136;16.928;2022-10-24T07:47:21;7.07;;;5.40;;
59474;SDS011;45288;51.136;16.928;2022-10-24T07:49:46;8.93;;;5.87;;
59474;SDS011;45288;51.136;16.928;2022-10-24T07:52:12;7.47;;;5.60;;
59474;SDS011;45288;51.136;16.928;2022-10-24T07:54:37;7.57;;;5.70;;
59474;SDS011;45288;51.136;16.928;2022-10-24T07:57:03;7.80;;;5.13;;
59474;SDS011;45288;51.136;16.928;2022-10-24T07:59:29;6.05;;;5.00;;
59474;SDS011;45288;51.136;16.928;2022-10-24T08:01:55;9.23;;;5.13;;
59474;SDS011;45288;51.136;16.928;2022-10-24T08:04:20;6.43;;;4.53;;
59474;SDS011;45288;51.136;16.928;2022-10-24T08:06:46;6.23;;;4.53;;
59474;SDS011;45288;51.136;16.928;2022-10-24T08:09:12;6.03;;;4.18;;
59474;SDS011;45288;51.136;16.928;2022-10-24T08:11:37;6.90;;;4.43;;
59474;SDS011;45288;51.136;16.928;2022-10-24T08:14:03;6.78;;;4.03;;
59474;SDS011;45288;51.136;16.928;2022-10-24T08:16:29;5.93;;;4.20;;
59474;SDS011;45288;51.136;16.928;2022-10-24T08:18:55;5.27;;;3.87;;
59474;SDS011;45288;51.136;16.928;2022-10-24T08:21:21;6.13;;;3.77;;
59474;SDS011;45288;51.136;16.928;2022-10-24T08:23:48;6.25;;;3.70;;
59474;SDS011;45288;51.136;16.928;2022-10-24T08:26:15;7.30;;;3.50;;
59474;SDS011;45288;51.136;16.928;2022-10-24T08:28:41;7.27;;;3.80;;
59474;SDS011;45288;51.136;16.928;2022-10-24T08:31:09;7.32;;;3.60;;
59474;SDS011;45288;51.136;16.928;2022-10-24T08:33:35;5.40;;;3.70;;
59474;SDS011;45288;51.136;16.928;2022-10-24T08:36:02;6.33;;;3.50;;
59474;SDS011;45288;51.136;16.928;2022-10-24T08:38:28;6.17;;;3.57;;
59474;SDS011;45288;51.136;16.928;2022-10-24T08:40:54;5.63;;;3.83;;
59474;SDS011;45288;51.136;16.928;2022-10-24T08:43:20;5.80;;;3.70;;
59474;SDS011;45288;51.136;16.928;2022-10-24T08:46:24;7.57;;;3.88;;
59474;SDS011;45288;51.136;16.928;2022-10-24T08:48:42;5.67;;;3.97;;
59474;SDS011;45288;51.136;16.928;2022-10-24T08:51:13;5.60;;;3.97;;
59474;SDS011;45288;51.136;16.928;2022-10-24T08:53:42;6.45;;;4.00;;
59474;SDS011;45288;51.136;16.928;2022-10-24T08:56:08;5.20;;;3.80;;
59474;SDS011;45288;51.136;16.928;2022-10-24T08:58:35;5.22;;;3.88;;
59474;SDS011;45288;51.136;16.928;2022-10-24T09:01:04;5.93;;;3.92;;
59474;SDS011;45288;51.136;16.928;2022-10-24T09:03:37;5.90;;;3.53;;
59474;SDS011;45288;51.136;16.928;2022-10-24T09:06:05;7.67;;;3.80;;
59474;SDS011;45288;51.136;16.928;2022-10-24T09:08:33;6.32;;;4.00;;
59474;SDS011;45288;51.136;16.928;2022-10-24T09:11:01;6.03;;;3.92;;
59474;SDS011;45288;51.136;16.928;2022-10-24T09:13:27;6.33;;;3.90;;
59474;SDS011;45288;51.136;16.928;2022-10-24T09:15:53;6.53;;;4.53;;
59474;SDS011;45288;51.136;16.928;2022-10-24T09:18:30;9.43;;;4.57;;
59474;SDS011;45288;51.136;16.928;2022-10-24T09:20:57;7.30;;;4.22;;
59474;SDS011;45288;51.136;16.928;2022-10-24T09:23:23;4.90;;;3.92;;
59474;SDS011;45288;51.136;16.928;2022-10-24T09:25:50;6.80;;;4.13;;
59474;SDS011;45288;51.136;16.928;2022-10-24T09:28:17;6.85;;;3.85;;
59474;SDS011;45288;51.136;16.928;2022-10-24T09:30:43;7.55;;;3.60;;
59474;SDS011;45288;51.136;16.928;2022-10-24T09:33:18;6.50;;;3.78;;
59474;SDS011;45288;51.136;16.928;2022-10-24T09:35:45;6.13;;;3.67;;
59474;SDS011;45288;51.136;16.928;2022-10-24T09:38:27;4.40;;;3.40;;
59474;SDS011;45288;51.136;16.928;2022-10-24T09:40:55;7.00;;;3.72;;
59474;SDS011;45288;51.136;16.928;2022-10-24T09:44:07;8.52;;;3.95;;
59474;SDS011;45288;51.136;16.928;2022-10-24T09:46:08;4.97;;;3.63;;
59474;SDS011;45288;51.136;16.928;2022-10-24T09:48:38;6.03;;;3.38;;
59474;SDS011;45288;51.136;16.928;2022-10-24T09:51:09;5.63;;;3.25;;
59474;SDS011;45288;51.136;16.928;2022-10-24T09:53:58;5.03;;;3.00;;
59474;SDS011;45288;51.136;16.928;2022-10-24T09:56:31;7.32;;;3.17;;
59474;SDS011;45288;51.136;16.928;2022-10-24T09:58:57;4.73;;;2.73;;
59474;SDS011;45288;51.136;16.928;2022-10-24T10:01:36;6.40;;;2.80;;
59474;SDS011;45288;51.136;16.928;2022-10-24T10:04:03;5.63;;;3.33;;
59474;SDS011;45288;51.136;16.928;2022-10-24T10:06:30;5.45;;;2.92;;
59474;SDS011;45288;51.136;16.928;2022-10-24T10:08:55;5.13;;;2.90;;
59474;SDS011;45288;51.136;16.928;2022-10-24T10:11:25;5.90;;;2.90;;
59474;SDS011;45288;51.136;16.928;2022-10-24T10:13:51;4.80;;;3.20;;
59474;SDS011;45288;51.136;16.928;2022-10-24T10:16:20;5.93;;;3.03;;
59474;SDS011;45288;51.136;16.928;2022-10-24T10:18:46;6.78;;;3.20;;
59474;SDS011;45288;51.136;16.928;2022-10-24T10:21:20;5.75;;;3.40;;
59474;SDS011;45288;51.136;16.928;2022-10-24T10:23:46;6.20;;;2.93;;
59474;SDS011;45288;51.136;16.928;2022-10-24T10:28:44;5.20;;;3.10;;
59474;SDS011;45288;51.136;16.928;2022-10-24T10:31:11;4.15;;;2.80;;
59474;SDS011;45288;51.136;16.928;2022-10-24T10:33:43;5.38;;;2.90;;
59474;SDS011;45288;51.136;16.928;2022-10-24T10:36:15;6.60;;;3.10;;
59474;SDS011;45288;51.136;16.928;2022-10-24T10:38:57;8.50;;;3.63;;
59474;SDS011;45288;51.136;16.928;2022-10-24T10:42:32;6.43;;;2.80;;
59474;SDS011;45288;51.136;16.928;2022-10-24T10:49:59;5.30;;;3.08;;
59474;SDS011;45288;51.136;16.928;2022-10-24T10:52:30;6.60;;;3.17;;
59474;SDS011;45288;51.136;16.928;2022-10-24T10:57:30;5.87;;;3.20;;
59474;SDS011;45288;51.136;16.928;2022-10-24T10:59:57;5.50;;;3.00;;
59474;SDS011;45288;51.136;16.928;2022-10-24T11:10:17;8.50;;;3.57;;
59474;SDS011;45288;51.136;16.928;2022-10-24T11:12:44;4.90;;;2.78;;
59474;SDS011;45288;51.136;16.928;2022-10-24T11:15:15;5.53;;;2.80;;
59474;SDS011;45288;51.136;16.928;2022-10-24T11:17:45;5.30;;;3.00;;
59474;SDS011;45288;51.136;16.928;2022-10-24T11:20:17;5.53;;;2.88;;
59474;SDS011;45288;51.136;16.928;2022-10-24T11:25:40;5.65;;;3.08;;
59474;SDS011;45288;51.136;16.928;2022-10-24T11:28:18;7.90;;;3.70;;
59474;SDS011;45288;51.136;16.928;2022-10-24T11:33:25;7.05;;;3.10;;
59474;SDS011;45288;51.136;16.928;2022-10-24T11:35:59;6.20;;;3.00;;
59474;SDS011;45288;51.136;16.928;2022-10-24T11:38:26;5.18;;;3.00;;
59474;SDS011;45288;51.136;16.928;2022-10-24T11:40:53;6.32;;;3.10;;
59474;SDS011;45288;51.136;16.928;2022-10-24T11:43:23;5.43;;;3.20;;
59474;SDS011;45288;51.136;16.928;2022-10-24T11:46:02;8.18;;;3.05;;
59474;SDS011;45288;51.136;16.928;2022-10-24T11:48:32;7.22;;;2.90;;
59474;SDS011;45288;51.136;16.928;2022-10-24T11:51:03;8.30;;;3.35;;
59474;SDS011;45288;51.136;16.928;2022-10-24T11:56:11;8.17;;;3.43;;
59474;SDS011;45288;51.136;16.928;2022-10-24T11:58:45;6.93;;;3.08;;
59474;SDS011;45288;51.136;16.928;2022-10-24T12:09:05;6.78;;;3.35;;
59474;SDS011;45288;51.136;16.928;2022-10-24T12:11:48;8.53;;;3.40;;
59474;SDS011;45288;51.136;16.928;2022-10-24T12:19:29;7.90;;;3.35;;
59474;SDS011;45288;51.136;16.928;2022-10-24T12:21:57;7.07;;;3.50;;
59474;SDS011;45288;51.136;16.928;2022-10-24T12:24:26;7.43;;;3.72;;
59474;SDS011;45288;51.136;16.928;2022-10-24T12:26:59;7.93;;;3.70;;
59474;SDS011;45288;51.136;16.928;2022-10-24T12:29:27;10.07;;;4.00;;
59474;SDS011;45288;51.136;16.928;2022-10-24T12:31:56;7.65;;;3.80;;
59474;SDS011;45288;51.136;16.928;2022-10-24T12:39:34;9.43;;;3.80;;
59474;SDS011;45288;51.136;16.928;2022-10-24T12:42:00;8.05;;;3.70;;
59474;SDS011;45288;51.136;16.928;2022-10-24T12:46:58;6.95;;;3.72;;
59474;SDS011;45288;51.136;16.928;2022-10-24T12:49:29;6.95;;;3.63;;
59474;SDS011;45288;51.136;16.928;2022-10-24T12:51:55;10.07;;;4.00;;
59474;SDS011;45288;51.136;16.928;2022-10-24T12:54:40;8.17;;;4.00;;
59474;SDS011;45288;51.136;16.928;2022-10-24T13:09:57;8.95;;;3.80;;
59474;SDS011;45288;51.136;16.928;2022-10-24T13:12:32;9.00;;;3.90;;
59474;SDS011;45288;51.136;16.928;2022-10-24T13:15:12;8.77;;;3.95;;
59474;SDS011;45288;51.136;16.928;2022-10-24T13:18:03;8.73;;;3.42;;
59474;SDS011;45288;51.136;16.928;2022-10-24T13:20:44;7.70;;;3.70;;
59474;SDS011;45288;51.136;16.928;2022-10-24T13:23:13;7.20;;;3.50;;
59474;SDS011;45288;51.136;16.928;2022-10-24T13:25:39;9.25;;;3.63;;
59474;SDS011;45288;51.136;16.928;2022-10-24T13:38:54;7.47;;;3.45;;
59474;SDS011;45288;51.136;16.928;2022-10-24T13:41:42;6.40;;;3.47;;
59474;SDS011;45288;51.136;16.928;2022-10-24T13:49:21;5.70;;;3.42;;
59474;SDS011;45288;51.136;16.928;2022-10-24T13:51:50;8.02;;;3.80;;
59474;SDS011;45288;51.136;16.928;2022-10-24T13:54:27;8.77;;;3.80;;
59474;SDS011;45288;51.136;16.928;2022-10-24T13:56:54;6.93;;;4.10;;
59474;SDS011;45288;51.136;16.928;2022-10-24T13:59:53;8.10;;;4.20;;
59474;SDS011;45288;51.136;16.928;2022-10-24T14:02:17;6.65;;;4.05;;
59474;SDS011;45288;51.136;16.928;2022-10-24T14:04:45;8.82;;;4.45;;
59474;SDS011;45288;51.136;16.928;2022-10-24T14:07:12;9.20;;;4.80;;
59474;SDS011;45288;51.136;16.928;2022-10-24T14:09:40;6.55;;;4.38;;
59474;SDS011;45288;51.136;16.928;2022-10-24T14:12:07;6.97;;;4.40;;
59474;SDS011;45288;51.136;16.928;2022-10-24T14:14:41;7.45;;;4.53;;
59474;SDS011;45288;51.136;16.928;2022-10-24T14:19:33;9.95;;;4.80;;
59474;SDS011;45288;51.136;16.928;2022-10-24T14:22:01;7.07;;;4.20;;
59474;SDS011;45288;51.136;16.928;2022-10-24T14:24:29;7.50;;;4.90;;
59474;SDS011;45288;51.136;16.928;2022-10-24T14:26:54;7.13;;;4.53;;
59474;SDS011;45288;51.136;16.928;2022-10-24T14:29:25;7.95;;;4.45;;
59474;SDS011;45288;51.136;16.928;2022-10-24T14:31:55;10.52;;;4.88;;
59474;SDS011;45288;51.136;16.928;2022-10-24T14:34:22;10.18;;;5.15;;
59474;SDS011;45288;51.136;16.928;2022-10-24T14:36:48;8.40;;;4.45;;
59474;SDS011;45288;51.136;16.928;2022-10-24T14:39:17;7.60;;;4.90;;
59474;SDS011;45288;51.136;16.928;2022-10-24T14:41:48;7.55;;;4.72;;
59474;SDS011;45288;51.136;16.928;2022-10-24T14:44:15;8.45;;;4.93;;
59474;SDS011;45288;51.136;16.928;2022-10-24T14:46:42;8.27;;;5.60;;
59474;SDS011;45288;51.136;16.928;2022-10-24T14:49:41;8.52;;;5.03;;
59474;SDS011;45288;51.136;16.928;2022-10-24T14:54:39;9.45;;;4.93;;
59474;SDS011;45288;51.136;16.928;2022-10-24T14:57:11;6.75;;;4.40;;
59474;SDS011;45288;51.136;16.928;2022-10-24T14:59:42;9.40;;;4.60;;
59474;SDS011;45288;51.136;16.928;2022-10-24T15:05:11;10.20;;;4.97;;
59474;SDS011;45288;51.136;16.928;2022-10-24T15:07:38;9.77;;;4.82;;
59474;SDS011;45288;51.136;16.928;2022-10-24T15:12:39;7.80;;;4.28;;
59474;SDS011;45288;51.136;16.928;2022-10-24T15:17:43;10.93;;;5.33;;
59474;SDS011;45288;51.136;16.928;2022-10-24T15:20:11;8.52;;;5.40;;
59474;SDS011;45288;51.136;16.928;2022-10-24T15:22:38;8.20;;;4.80;;
59474;SDS011;45288;51.136;16.928;2022-10-24T15:25:05;8.48;;;5.10;;
59474;SDS011;45288;51.136;16.928;2022-10-24T15:27:39;12.18;;;5.38;;
59474;SDS011;45288;51.136;16.928;2022-10-24T15:30:12;10.70;;;5.53;;
59474;SDS011;45288;51.136;16.928;2022-10-24T15:32:37;12.20;;;5.93;;
59474;SDS011;45288;51.136;16.928;2022-10-24T15:35:03;11.27;;;5.47;;
59474;SDS011;45288;51.136;16.928;2022-10-24T15:37:29;9.38;;;5.10;;
59474;SDS011;45288;51.136;16.928;2022-10-24T15:39:55;9.23;;;4.93;;
59474;SDS011;45288;51.136;16.928;2022-10-24T15:42:20;9.48;;;5.13;;
59474;SDS011;45288;51.136;16.928;2022-10-24T15:44:46;9.03;;;5.13;;
59474;SDS011;45288;51.136;16.928;2022-10-24T15:47:13;10.07;;;4.80;;
59474;SDS011;45288;51.136;16.928;2022-10-24T15:49:38;8.20;;;4.80;;
59474;SDS011;45288;51.136;16.928;2022-10-24T15:52:05;9.20;;;4.83;;
59474;SDS011;45288;51.136;16.928;2022-10-24T15:54:31;13.57;;;5.00;;
59474;SDS011;45288;51.136;16.928;2022-10-24T15:56:57;8.55;;;4.63;;
59474;SDS011;45288;51.136;16.928;2022-10-24T15:59:23;8.20;;;4.35;;
59474;SDS011;45288;51.136;16.928;2022-10-24T16:01:54;10.00;;;4.80;;
59474;SDS011;45288;51.136;16.928;2022-10-24T16:04:21;7.97;;;4.53;;
59474;SDS011;45288;51.136;16.928;2022-10-24T16:06:48;9.73;;;4.30;;
59474;SDS011;45288;51.136;16.928;2022-10-24T16:09:14;8.77;;;4.68;;
59474;SDS011;45288;51.136;16.928;2022-10-24T16:11:40;9.95;;;4.78;;
59474;SDS011;45288;51.136;16.928;2022-10-24T16:14:06;11.32;;;5.55;;
59474;SDS011;45288;51.136;16.928;2022-10-24T16:16:31;9.85;;;5.47;;
59474;SDS011;45288;51.136;16.928;2022-10-24T16:18:57;9.10;;;5.10;;